Tonasket, Washington
Current Conditions -  °F | °C
As of 7:53 PM on Wednesday 22 Oct 2014 (Local Time) from KOMK Reporting Station
Light Rain Light Rain  
Wind Chill: 51°   Ceiling: 1400
Heat Index: 51°   Visibility: 8mi
Dew Point: 50°   Wind: 6mph
Humidity: 96%   Direction: 250°WSW
Pressure: 29.66"   Gusts: NA
Location:  48.71°N, 119.44°W
Report Text: KOMK 230253Z AUTO 25005KT 8SM -RA BKN014 OVC022 11/10 A2966 RMK AO2 SLP046 P0008 60023 T01060100 56006
Loading
Personal Weather Stations






























Interactive Weather Map
Tropical Storm Tracking
New forecast layout! Learn more

10-Day Weather Forecast

Advertisements
Track Severe Weather on mobile